sensor_id;sensor_type;location;lat;lon;timestamp;pressure;altitude;pressure_sealevel;temperature;humidity
12963;BME280;6546;49.882;8.666;2023-04-28T00:01:51;99830.94;;;12.95;51.23
12963;BME280;6546;49.882;8.666;2023-04-28T00:04:18;99824.50;;;12.91;51.42
12963;BME280;6546;49.882;8.666;2023-04-28T00:06:44;99834.28;;;12.89;51.68
12963;BME280;6546;49.882;8.666;2023-04-28T00:09:11;99834.00;;;12.84;51.87
12963;BME280;6546;49.882;8.666;2023-04-28T00:11:37;99834.13;;;12.76;52.29
12963;BME280;6546;49.882;8.666;2023-04-28T00:14:05;99828.72;;;12.77;52.32
12963;BME280;6546;49.882;8.666;2023-04-28T00:16:32;99830.97;;;12.80;52.17
12963;BME280;6546;49.882;8.666;2023-04-28T00:18:58;99826.22;;;12.84;52.30
12963;BME280;6546;49.882;8.666;2023-04-28T00:21:25;99825.22;;;12.85;52.25
12963;BME280;6546;49.882;8.666;2023-04-28T00:23:52;99814.91;;;12.91;52.12
12963;BME280;6546;49.882;8.666;2023-04-28T00:26:19;99810.53;;;12.92;51.98
12963;BME280;6546;49.882;8.666;2023-04-28T00:28:46;99814.41;;;13.02;51.91
12963;BME280;6546;49.882;8.666;2023-04-28T00:31:14;99809.34;;;12.94;52.01
12963;BME280;6546;49.882;8.666;2023-04-28T00:33:42;99803.53;;;12.92;52.43
12963;BME280;6546;49.882;8.666;2023-04-28T00:36:09;99796.00;;;12.83;52.71
12963;BME280;6546;49.882;8.666;2023-04-28T00:38:36;99802.22;;;12.82;53.07
12963;BME280;6546;49.882;8.666;2023-04-28T00:41:02;99790.56;;;12.78;53.41
12963;BME280;6546;49.882;8.666;2023-04-28T00:43:29;99785.38;;;12.78;53.41
12963;BME280;6546;49.882;8.666;2023-04-28T00:45:55;99780.78;;;12.80;53.43
12963;BME280;6546;49.882;8.666;2023-04-28T00:48:23;99785.00;;;12.81;53.66
12963;BME280;6546;49.882;8.666;2023-04-28T00:50:50;99782.03;;;12.84;53.55
12963;BME280;6546;49.882;8.666;2023-04-28T00:53:17;99774.25;;;12.84;53.85
12963;BME280;6546;49.882;8.666;2023-04-28T00:55:45;99776.66;;;12.85;53.79
12963;BME280;6546;49.882;8.666;2023-04-28T00:58:12;99776.84;;;12.84;53.88
12963;BME280;6546;49.882;8.666;2023-04-28T01:00:39;99775.78;;;12.78;53.75
12963;BME280;6546;49.882;8.666;2023-04-28T01:03:05;99771.50;;;12.71;54.01
12963;BME280;6546;49.882;8.666;2023-04-28T01:05:33;99766.31;;;12.71;54.16
12963;BME280;6546;49.882;8.666;2023-04-28T01:08:01;99756.09;;;12.69;54.01
12963;BME280;6546;49.882;8.666;2023-04-28T01:10:29;99753.75;;;12.74;53.74
12963;BME280;6546;49.882;8.666;2023-04-28T01:12:55;99749.97;;;12.77;53.92
12963;BME280;6546;49.882;8.666;2023-04-28T01:15:22;99748.03;;;12.79;53.86
12963;BME280;6546;49.882;8.666;2023-04-28T01:17:49;99740.41;;;12.77;54.00
12963;BME280;6546;49.882;8.666;2023-04-28T01:20:16;99734.84;;;12.80;54.00
12963;BME280;6546;49.882;8.666;2023-04-28T01:22:44;99730.44;;;12.81;53.98
12963;BME280;6546;49.882;8.666;2023-04-28T01:25:12;99726.44;;;12.78;54.41
12963;BME280;6546;49.882;8.666;2023-04-28T01:27:38;99730.50;;;12.66;54.71
12963;BME280;6546;49.882;8.666;2023-04-28T01:30:06;99730.66;;;12.64;55.06
12963;BME280;6546;49.882;8.666;2023-04-28T01:32:33;99730.66;;;12.64;55.00
12963;BME280;6546;49.882;8.666;2023-04-28T01:34:59;99732.22;;;12.59;55.23
12963;BME280;6546;49.882;8.666;2023-04-28T01:37:26;99733.56;;;12.55;55.72
12963;BME280;6546;49.882;8.666;2023-04-28T01:39:52;99733.13;;;12.51;55.66
12963;BME280;6546;49.882;8.666;2023-04-28T01:42:20;99727.69;;;12.46;55.87
12963;BME280;6546;49.882;8.666;2023-04-28T01:44:47;99725.63;;;12.42;55.82
12963;BME280;6546;49.882;8.666;2023-04-28T01:47:13;99727.25;;;12.43;55.96
12963;BME280;6546;49.882;8.666;2023-04-28T01:49:40;99718.88;;;12.47;56.13
12963;BME280;6546;49.882;8.666;2023-04-28T01:52:06;99718.09;;;12.47;56.39
12963;BME280;6546;49.882;8.666;2023-04-28T01:57:56;99714.25;;;12.43;57.22
12963;BME280;6546;49.882;8.666;2023-04-28T02:00:23;99716.41;;;12.39;57.32
12963;BME280;6546;49.882;8.666;2023-04-28T02:02:50;99715.16;;;12.35;57.55
12963;BME280;6546;49.882;8.666;2023-04-28T02:05:16;99711.50;;;12.30;57.85
12963;BME280;6546;49.882;8.666;2023-04-28T02:07:43;99710.94;;;12.34;57.97
12963;BME280;6546;49.882;8.666;2023-04-28T02:10:10;99714.19;;;12.36;58.09
12963;BME280;6546;49.882;8.666;2023-04-28T02:12:37;99711.59;;;12.36;58.50
12963;BME280;6546;49.882;8.666;2023-04-28T02:15:08;99713.72;;;12.33;58.57
12963;BME280;6546;49.882;8.666;2023-04-28T02:17:35;99716.50;;;12.31;58.99
12963;BME280;6546;49.882;8.666;2023-04-28T02:20:01;99728.16;;;12.21;59.27
12963;BME280;6546;49.882;8.666;2023-04-28T02:22:29;99719.66;;;12.12;60.00
12963;BME280;6546;49.882;8.666;2023-04-28T02:24:56;99727.28;;;12.14;60.11
12963;BME280;6546;49.882;8.666;2023-04-28T02:27:22;99725.75;;;12.19;60.28
12963;BME280;6546;49.882;8.666;2023-04-28T02:29:49;99718.50;;;12.15;60.41
12963;BME280;6546;49.882;8.666;2023-04-28T02:32:17;99723.34;;;12.18;60.64
12963;BME280;6546;49.882;8.666;2023-04-28T02:34:44;99710.53;;;12.16;60.89
12963;BME280;6546;49.882;8.666;2023-04-28T02:37:10;99722.16;;;12.20;61.04
12963;BME280;6546;49.882;8.666;2023-04-28T02:39:37;99718.16;;;12.18;61.27
12963;BME280;6546;49.882;8.666;2023-04-28T02:42:04;99713.75;;;12.18;61.37
12963;BME280;6546;49.882;8.666;2023-04-28T02:44:31;99721.63;;;12.10;61.73
12963;BME280;6546;49.882;8.666;2023-04-28T02:46:57;99713.59;;;12.05;61.78
12963;BME280;6546;49.882;8.666;2023-04-28T02:49:26;99705.00;;;12.04;62.47
12963;BME280;6546;49.882;8.666;2023-04-28T02:51:52;99710.19;;;12.04;62.63
12963;BME280;6546;49.882;8.666;2023-04-28T02:54:19;99698.03;;;12.05;63.05
12963;BME280;6546;49.882;8.666;2023-04-28T02:56:51;99699.44;;;11.93;63.31
12963;BME280;6546;49.882;8.666;2023-04-28T02:59:18;99695.88;;;11.94;63.79
12963;BME280;6546;49.882;8.666;2023-04-28T03:01:45;99689.44;;;11.90;64.43
12963;BME280;6546;49.882;8.666;2023-04-28T03:04:12;99701.44;;;11.91;64.74
12963;BME280;6546;49.882;8.666;2023-04-28T03:06:40;99682.38;;;11.84;64.74
12963;BME280;6546;49.882;8.666;2023-04-28T03:09:08;99686.22;;;11.88;65.02
12963;BME280;6546;49.882;8.666;2023-04-28T03:11:35;99690.31;;;11.97;65.55
12963;BME280;6546;49.882;8.666;2023-04-28T03:14:01;99689.00;;;12.01;65.68
12963;BME280;6546;49.882;8.666;2023-04-28T03:16:28;99690.31;;;11.97;66.05
12963;BME280;6546;49.882;8.666;2023-04-28T03:18:55;99681.94;;;11.95;66.38
12963;BME280;6546;49.882;8.666;2023-04-28T03:21:21;99686.75;;;11.98;66.23
12963;BME280;6546;49.882;8.666;2023-04-28T03:23:49;99676.00;;;12.01;66.14
12963;BME280;6546;49.882;8.666;2023-04-28T03:26:16;99691.22;;;12.04;66.07
12963;BME280;6546;49.882;8.666;2023-04-28T03:28:43;99675.66;;;12.04;66.25
12963;BME280;6546;49.882;8.666;2023-04-28T03:31:09;99686.84;;;12.04;66.42
12963;BME280;6546;49.882;8.666;2023-04-28T03:33:36;99680.66;;;12.05;66.85
12963;BME280;6546;49.882;8.666;2023-04-28T03:36:03;99683.31;;;12.12;67.66
12963;BME280;6546;49.882;8.666;2023-04-28T03:38:30;99683.31;;;12.12;68.55
12963;BME280;6546;49.882;8.666;2023-04-28T03:40:58;99667.38;;;12.15;69.08
12963;BME280;6546;49.882;8.666;2023-04-28T03:43:24;99657.81;;;12.16;68.66
12963;BME280;6546;49.882;8.666;2023-04-28T03:45:51;99657.00;;;12.15;68.90
12963;BME280;6546;49.882;8.666;2023-04-28T03:48:18;99662.19;;;12.15;68.89
12963;BME280;6546;49.882;8.666;2023-04-28T03:50:45;99664.88;;;12.22;68.60
12963;BME280;6546;49.882;8.666;2023-04-28T03:53:11;99663.81;;;12.16;68.86
12963;BME280;6546;49.882;8.666;2023-04-28T03:55:38;99667.38;;;12.15;69.30
12963;BME280;6546;49.882;8.666;2023-04-28T03:58:06;99672.22;;;12.18;69.81
12963;BME280;6546;49.882;8.666;2023-04-28T04:00:32;99664.63;;;12.17;70.35
12963;BME280;6546;49.882;8.666;2023-04-28T04:02:59;99656.63;;;12.18;70.58
12963;BME280;6546;49.882;8.666;2023-04-28T04:05:25;99643.50;;;12.20;70.83
12963;BME280;6546;49.882;8.666;2023-04-28T04:07:52;99652.69;;;12.22;70.50
12963;BME280;6546;49.882;8.666;2023-04-28T04:10:19;99640.91;;;12.20;70.56
12963;BME280;6546;49.882;8.666;2023-04-28T04:12:45;99639.47;;;12.17;70.75
12963;BME280;6546;49.882;8.666;2023-04-28T04:15:14;99636.16;;;12.23;70.73
12963;BME280;6546;49.882;8.666;2023-04-28T04:17:41;99624.34;;;12.21;70.46
12963;BME280;6546;49.882;8.666;2023-04-28T04:20:08;99627.91;;;12.20;70.63
12963;BME280;6546;49.882;8.666;2023-04-28T04:22:35;99605.09;;;12.15;70.42
12963;BME280;6546;49.882;8.666;2023-04-28T04:25:02;99620.81;;;12.28;70.11
12963;BME280;6546;49.882;8.666;2023-04-28T04:27:28;99606.63;;;12.24;70.30
12963;BME280;6546;49.882;8.666;2023-04-28T04:29:55;99610.44;;;12.28;70.24
12963;BME280;6546;49.882;8.666;2023-04-28T04:32:23;99609.91;;;12.33;69.99
12963;BME280;6546;49.882;8.666;2023-04-28T04:34:49;99614.47;;;12.31;70.17
12963;BME280;6546;49.882;8.666;2023-04-28T04:37:16;99615.53;;;12.36;70.17
12963;BME280;6546;49.882;8.666;2023-04-28T04:39:43;99616.72;;;12.34;71.12
12963;BME280;6546;49.882;8.666;2023-04-28T04:42:10;99616.88;;;12.32;71.40
12963;BME280;6546;49.882;8.666;2023-04-28T04:44:36;99612.94;;;12.36;71.82
12963;BME280;6546;49.882;8.666;2023-04-28T04:47:03;99608.97;;;12.40;71.88
12963;BME280;6546;49.882;8.666;2023-04-28T04:49:31;99606.13;;;12.35;72.12
12963;BME280;6546;49.882;8.666;2023-04-28T04:51:58;99606.94;;;12.36;71.97
12963;BME280;6546;49.882;8.666;2023-04-28T04:54:25;99604.88;;;12.31;72.28
12963;BME280;6546;49.882;8.666;2023-04-28T04:56:52;99601.44;;;12.24;72.49
12963;BME280;6546;49.882;8.666;2023-04-28T04:59:18;99600.69;;;12.30;72.43
12963;BME280;6546;49.882;8.666;2023-04-28T05:01:45;99607.22;;;12.26;72.54
12963;BME280;6546;49.882;8.666;2023-04-28T05:04:11;99608.22;;;12.25;72.73
12963;BME280;6546;49.882;8.666;2023-04-28T05:06:40;99594.50;;;12.31;71.96
12963;BME280;6546;49.882;8.666;2023-04-28T05:09:06;99594.84;;;12.28;71.68
12963;BME280;6546;49.882;8.666;2023-04-28T05:11:33;99600.78;;;12.22;71.54
12963;BME280;6546;49.882;8.666;2023-04-28T05:14:00;99622.06;;;12.11;72.47
12963;BME280;6546;49.882;8.666;2023-04-28T05:16:27;99618.19;;;12.07;72.70
12963;BME280;6546;49.882;8.666;2023-04-28T05:18:53;99624.00;;;12.09;73.15
12963;BME280;6546;49.882;8.666;2023-04-28T05:21:20;99616.66;;;12.13;73.44
12963;BME280;6546;49.882;8.666;2023-04-28T05:23:48;99629.09;;;12.17;73.86
12963;BME280;6546;49.882;8.666;2023-04-28T05:26:14;99631.50;;;12.19;74.58
12963;BME280;6546;49.882;8.666;2023-04-28T05:28:41;99632.75;;;12.23;74.38
12963;BME280;6546;49.882;8.666;2023-04-28T05:31:08;99637.56;;;12.26;74.70
12963;BME280;6546;49.882;8.666;2023-04-28T05:33:34;99638.22;;;12.28;74.69
12963;BME280;6546;49.882;8.666;2023-04-28T05:36:01;99639.44;;;12.32;75.07
12963;BME280;6546;49.882;8.666;2023-04-28T05:38:28;99634.88;;;12.34;74.98
12963;BME280;6546;49.882;8.666;2023-04-28T05:40:57;99648.84;;;12.33;75.08
12963;BME280;6546;49.882;8.666;2023-04-28T05:43:23;99642.47;;;12.35;75.18
12963;BME280;6546;49.882;8.666;2023-04-28T05:45:50;99645.34;;;12.40;75.16
12963;BME280;6546;49.882;8.666;2023-04-28T05:48:17;99648.72;;;12.41;75.53
12963;BME280;6546;49.882;8.666;2023-04-28T05:50:43;99652.13;;;12.41;75.60
12963;BME280;6546;49.882;8.666;2023-04-28T05:53:10;99654.72;;;12.41;75.73
12963;BME280;6546;49.882;8.666;2023-04-28T05:55:37;99658.91;;;12.42;75.68
12963;BME280;6546;49.882;8.666;2023-04-28T05:58:05;99660.63;;;12.35;75.54
12963;BME280;6546;49.882;8.666;2023-04-28T06:00:32;99658.41;;;12.32;75.35
12963;BME280;6546;49.882;8.666;2023-04-28T06:02:59;99664.84;;;12.36;75.45
12963;BME280;6546;49.882;8.666;2023-04-28T06:05:26;99663.59;;;12.32;75.36
12963;BME280;6546;49.882;8.666;2023-04-28T06:07:53;99671.31;;;12.26;75.09
12963;BME280;6546;49.882;8.666;2023-04-28T06:10:21;99672.84;;;12.20;75.11
12963;BME280;6546;49.882;8.666;2023-04-28T06:12:47;99675.81;;;12.17;75.32
12963;BME280;6546;49.882;8.666;2023-04-28T06:15:15;99666.78;;;12.13;75.73
12963;BME280;6546;49.882;8.666;2023-04-28T06:17:42;99650.59;;;12.11;76.18
12963;BME280;6546;49.882;8.666;2023-04-28T06:20:09;99640.66;;;12.15;76.36
12963;BME280;6546;49.882;8.666;2023-04-28T06:22:38;99644.84;;;12.16;76.62
12963;BME280;6546;49.882;8.666;2023-04-28T06:25:05;99641.44;;;12.15;76.80
12963;BME280;6546;49.882;8.666;2023-04-28T06:27:31;99642.69;;;12.19;76.70
12963;BME280;6546;49.882;8.666;2023-04-28T06:29:58;99649.66;;;12.19;76.36
12963;BME280;6546;49.882;8.666;2023-04-28T06:32:26;99656.63;;;12.18;76.73
12963;BME280;6546;49.882;8.666;2023-04-28T06:34:53;99667.47;;;12.22;76.61
12963;BME280;6546;49.882;8.666;2023-04-28T06:37:19;99663.88;;;12.23;76.74
12963;BME280;6546;49.882;8.666;2023-04-28T06:39:46;99654.50;;;12.22;76.49
12963;BME280;6546;49.882;8.666;2023-04-28T06:42:13;99646.69;;;12.22;76.73
12963;BME280;6546;49.882;8.666;2023-04-28T06:44:42;99668.91;;;12.24;76.32
12963;BME280;6546;49.882;8.666;2023-04-28T06:47:09;99664.94;;;12.28;76.16
12963;BME280;6546;49.882;8.666;2023-04-28T06:49:37;99672.13;;;12.26;76.01
12963;BME280;6546;49.882;8.666;2023-04-28T06:52:03;99668.56;;;12.27;75.38
12963;BME280;6546;49.882;8.666;2023-04-28T06:54:32;99673.47;;;12.22;75.32
12963;BME280;6546;49.882;8.666;2023-04-28T06:56:58;99662.47;;;12.20;74.98
12963;BME280;6546;49.882;8.666;2023-04-28T06:59:25;99656.59;;;12.12;75.29
12963;BME280;6546;49.882;8.666;2023-04-28T07:01:51;99652.38;;;12.10;75.06
12963;BME280;6546;49.882;8.666;2023-04-28T07:04:18;99652.91;;;12.06;75.61
12963;BME280;6546;49.882;8.666;2023-04-28T07:06:46;99646.53;;;12.08;76.06
12963;BME280;6546;49.882;8.666;2023-04-28T07:09:12;99652.81;;;12.14;75.99
12963;BME280;6546;49.882;8.666;2023-04-28T07:11:40;99646.38;;;12.10;76.45
12963;BME280;6546;49.882;8.666;2023-04-28T07:14:07;99654.97;;;12.10;76.47
12963;BME280;6546;49.882;8.666;2023-04-28T07:16:33;99653.63;;;12.00;76.59
12963;BME280;6546;49.882;8.666;2023-04-28T07:19:00;99646.75;;;11.92;77.04
12963;BME280;6546;49.882;8.666;2023-04-28T07:21:26;99638.81;;;11.94;77.12
12963;BME280;6546;49.882;8.666;2023-04-28T07:23:54;99652.38;;;11.96;77.26
12963;BME280;6546;49.882;8.666;2023-04-28T07:26:21;99641.03;;;11.97;77.57
12963;BME280;6546;49.882;8.666;2023-04-28T07:28:48;99636.28;;;12.00;77.72
12963;BME280;6546;49.882;8.666;2023-04-28T07:31:14;99634.13;;;12.04;77.70
12963;BME280;6546;49.882;8.666;2023-04-28T07:33:41;99641.03;;;12.12;77.61
12963;BME280;6546;49.882;8.666;2023-04-28T07:36:08;99626.50;;;12.17;77.35
12963;BME280;6546;49.882;8.666;2023-04-28T07:38:35;99628.22;;;12.10;77.58
12963;BME280;6546;49.882;8.666;2023-04-28T07:41:03;99627.34;;;12.03;78.20
12963;BME280;6546;49.882;8.666;2023-04-28T07:43:29;99622.06;;;12.11;78.40
12963;BME280;6546;49.882;8.666;2023-04-28T07:45:56;99602.81;;;12.05;78.31
12963;BME280;6546;49.882;8.666;2023-04-28T07:48:23;99616.38;;;12.22;77.91
12963;BME280;6546;49.882;8.666;2023-04-28T07:50:51;99613.44;;;12.10;78.39
12963;BME280;6546;49.882;8.666;2023-04-28T07:53:17;99616.22;;;12.09;78.58
12963;BME280;6546;49.882;8.666;2023-04-28T07:55:44;99620.97;;;12.05;79.35
12963;BME280;6546;49.882;8.666;2023-04-28T07:58:12;99621.84;;;12.13;79.49
12963;BME280;6546;49.882;8.666;2023-04-28T08:00:39;99627.03;;;12.27;78.79
12963;BME280;6546;49.882;8.666;2023-04-28T08:03:05;99620.44;;;12.31;78.42
12963;BME280;6546;49.882;8.666;2023-04-28T08:05:32;99616.28;;;12.30;78.69
12963;BME280;6546;49.882;8.666;2023-04-28T08:07:58;99616.72;;;12.34;78.62
12963;BME280;6546;49.882;8.666;2023-04-28T08:10:25;99625.72;;;12.38;78.65
12963;BME280;6546;49.882;8.666;2023-04-28T08:12:51;99630.91;;;12.38;78.90
12963;BME280;6546;49.882;8.666;2023-04-28T08:15:19;99626.88;;;12.35;78.95
12963;BME280;6546;49.882;8.666;2023-04-28T08:17:46;99633.78;;;12.43;78.97
12963;BME280;6546;49.882;8.666;2023-04-28T08:20:13;99636.97;;;12.45;78.98
12963;BME280;6546;49.882;8.666;2023-04-28T08:22:43;99631.84;;;12.51;78.79
12963;BME280;6546;49.882;8.666;2023-04-28T08:25:10;99630.00;;;12.45;78.96
12963;BME280;6546;49.882;8.666;2023-04-28T08:27:36;99625.97;;;12.43;79.28
12963;BME280;6546;49.882;8.666;2023-04-28T08:30:05;99631.72;;;12.38;79.49
12963;BME280;6546;49.882;8.666;2023-04-28T08:32:33;99631.72;;;12.38;79.81
12963;BME280;6546;49.882;8.666;2023-04-28T08:35:00;99634.75;;;12.42;79.88
12963;BME280;6546;49.882;8.666;2023-04-28T08:37:26;99634.00;;;12.48;80.21
12963;BME280;6546;49.882;8.666;2023-04-28T08:39:53;99634.72;;;12.56;80.41
12963;BME280;6546;49.882;8.666;2023-04-28T08:42:28;99640.13;;;12.61;80.46
12963;BME280;6546;49.882;8.666;2023-04-28T08:44:55;99638.66;;;12.74;80.68
12963;BME280;6546;49.882;8.666;2023-04-28T08:47:32;99640.75;;;12.85;81.01
12963;BME280;6546;49.882;8.666;2023-04-28T08:50:02;99646.63;;;12.93;81.42
12963;BME280;6546;49.882;8.666;2023-04-28T08:52:30;99648.66;;;12.98;81.51
12963;BME280;6546;49.882;8.666;2023-04-28T08:54:57;99652.69;;;13.00;81.65
12963;BME280;6546;49.882;8.666;2023-04-28T08:57:25;99652.72;;;13.07;81.90
12963;BME280;6546;49.882;8.666;2023-04-28T08:59:52;99642.78;;;13.10;81.87
12963;BME280;6546;49.882;8.666;2023-04-28T09:02:19;99646.63;;;13.14;81.74
12963;BME280;6546;49.882;8.666;2023-04-28T09:04:46;99642.47;;;13.20;81.97
12963;BME280;6546;49.882;8.666;2023-04-28T09:07:14;99645.91;;;13.27;81.68
12963;BME280;6546;49.882;8.666;2023-04-28T09:09:40;99646.41;;;13.37;81.70
12963;BME280;6546;49.882;8.666;2023-04-28T09:12:08;99646.22;;;13.45;81.59
12963;BME280;6546;49.882;8.666;2023-04-28T09:14:36;99641.31;;;13.57;81.31
12963;BME280;6546;49.882;8.666;2023-04-28T09:17:08;99648.53;;;13.61;81.60
12963;BME280;6546;49.882;8.666;2023-04-28T09:19:37;99648.56;;;13.68;81.43
12963;BME280;6546;49.882;8.666;2023-04-28T09:22:04;99652.56;;;13.71;81.23
12963;BME280;6546;49.882;8.666;2023-04-28T09:24:34;99646.81;;;13.75;80.95
12963;BME280;6546;49.882;8.666;2023-04-28T09:27:02;99646.00;;;13.75;81.05
12963;BME280;6546;49.882;8.666;2023-04-28T09:29:30;99654.00;;;13.80;80.80
12963;BME280;6546;49.882;8.666;2023-04-28T09:32:12;99654.41;;;13.77;81.18
12963;BME280;6546;49.882;8.666;2023-04-28T09:34:42;99656.03;;;13.78;81.07
12963;BME280;6546;49.882;8.666;2023-04-28T09:37:14;99657.25;;;13.82;81.12
12963;BME280;6546;49.882;8.666;2023-04-28T09:39:43;99650.47;;;13.87;80.95
12963;BME280;6546;49.882;8.666;2023-04-28T09:42:10;99654.47;;;13.90;80.87
12963;BME280;6546;49.882;8.666;2023-04-28T09:44:36;99648.81;;;13.80;80.88
12963;BME280;6546;49.882;8.666;2023-04-28T09:47:18;99660.44;;;13.84;80.63
12963;BME280;6546;49.882;8.666;2023-04-28T09:49:52;99664.25;;;13.81;81.06
12963;BME280;6546;49.882;8.666;2023-04-28T09:52:20;99658.06;;;13.82;81.13
12963;BME280;6546;49.882;8.666;2023-04-28T09:54:49;99657.84;;;13.84;80.96
12963;BME280;6546;49.882;8.666;2023-04-28T09:57:16;99658.47;;;13.86;81.28
12963;BME280;6546;49.882;8.666;2023-04-28T09:59:46;99660.88;;;13.87;81.14
12963;BME280;6546;49.882;8.666;2023-04-28T10:02:14;99656.09;;;13.91;81.26
12963;BME280;6546;49.882;8.666;2023-04-28T10:04:43;99658.13;;;13.95;81.39
12963;BME280;6546;49.882;8.666;2023-04-28T10:07:10;99654.91;;;14.00;81.19
12963;BME280;6546;49.882;8.666;2023-04-28T10:09:37;99660.53;;;14.03;81.25
12963;BME280;6546;49.882;8.666;2023-04-28T10:12:09;99662.56;;;14.08;81.47
12963;BME280;6546;49.882;8.666;2023-04-28T10:14:37;99663.78;;;14.18;81.38
12963;BME280;6546;49.882;8.666;2023-04-28T10:17:03;99662.22;;;14.24;81.02
12963;BME280;6546;49.882;8.666;2023-04-28T10:19:31;99657.22;;;14.29;80.71
12963;BME280;6546;49.882;8.666;2023-04-28T10:22:08;99656.84;;;14.32;80.84
12963;BME280;6546;49.882;8.666;2023-04-28T10:24:52;99644.06;;;14.37;80.81
12963;BME280;6546;49.882;8.666;2023-04-28T10:27:28;99647.47;;;14.44;80.77
12963;BME280;6546;49.882;8.666;2023-04-28T10:30:08;99652.53;;;14.52;80.64
12963;BME280;6546;49.882;8.666;2023-04-28T10:32:35;99657.94;;;14.64;80.44
12963;BME280;6546;49.882;8.666;2023-04-28T10:38:03;99648.53;;;14.69;79.73
12963;BME280;6546;49.882;8.666;2023-04-28T10:40:31;99655.97;;;14.73;79.80
12963;BME280;6546;49.882;8.666;2023-04-28T10:42:59;99650.34;;;14.76;79.70
12963;BME280;6546;49.882;8.666;2023-04-28T10:46:00;99648.34;;;14.78;79.98
12963;BME280;6546;49.882;8.666;2023-04-28T10:49:01;99639.13;;;14.82;79.62
12963;BME280;6546;49.882;8.666;2023-04-28T10:51:29;99641.34;;;14.85;79.83
12963;BME280;6546;49.882;8.666;2023-04-28T10:54:16;99638.53;;;14.86;79.66
12963;BME280;6546;49.882;8.666;2023-04-28T10:57:17;99636.72;;;14.80;79.71
12963;BME280;6546;49.882;8.666;2023-04-28T10:59:46;99632.31;;;14.81;79.77
12963;BME280;6546;49.882;8.666;2023-04-28T11:02:37;99638.31;;;14.81;79.92
12963;BME280;6546;49.882;8.666;2023-04-28T11:05:15;99631.50;;;14.80;79.40
12963;BME280;6546;49.882;8.666;2023-04-28T11:11:23;99638.91;;;14.77;79.42
12963;BME280;6546;49.882;8.666;2023-04-28T11:13:51;99651.94;;;14.77;79.64
12963;BME280;6546;49.882;8.666;2023-04-28T11:16:22;99653.56;;;14.78;79.77
12963;BME280;6546;49.882;8.666;2023-04-28T11:18:55;99653.78;;;14.76;79.82
12963;BME280;6546;49.882;8.666;2023-04-28T11:21:24;99656.78;;;14.73;79.68
12963;BME280;6546;49.882;8.666;2023-04-28T11:23:52;99649.13;;;14.71;80.18
12963;BME280;6546;49.882;8.666;2023-04-28T11:26:19;99645.94;;;14.69;79.90
12963;BME280;6546;49.882;8.666;2023-04-28T11:28:52;99638.31;;;14.75;80.08
12963;BME280;6546;49.882;8.666;2023-04-28T11:31:22;99628.69;;;14.82;80.24
12963;BME280;6546;49.882;8.666;2023-04-28T11:33:52;99637.53;;;14.94;80.39
12963;BME280;6546;49.882;8.666;2023-04-28T11:36:23;99644.53;;;15.00;80.09
12963;BME280;6546;49.882;8.666;2023-04-28T11:38:50;99638.91;;;14.96;79.92
12963;BME280;6546;49.882;8.666;2023-04-28T11:41:17;99650.78;;;14.92;80.31
12963;BME280;6546;49.882;8.666;2023-04-28T11:43:43;99653.97;;;14.88;80.32
12963;BME280;6546;49.882;8.666;2023-04-28T11:46:15;99649.75;;;14.87;79.84
12963;BME280;6546;49.882;8.666;2023-04-28T11:48:43;99650.97;;;14.84;79.92
12963;BME280;6546;49.882;8.666;2023-04-28T11:51:10;99639.31;;;14.73;80.42
12963;BME280;6546;49.882;8.666;2023-04-28T11:53:51;99635.72;;;14.75;80.60
12963;BME280;6546;49.882;8.666;2023-04-28T11:56:18;99644.13;;;14.77;80.21
12963;BME280;6546;49.882;8.666;2023-04-28T11:58:45;99651.16;;;14.76;80.51
12963;BME280;6546;49.882;8.666;2023-04-28T12:01:12;99652.75;;;14.77;80.21
12963;BME280;6546;49.882;8.666;2023-04-28T12:03:44;99655.97;;;14.79;80.61
12963;BME280;6546;49.882;8.666;2023-04-28T12:06:11;99645.31;;;14.74;80.46
12963;BME280;6546;49.882;8.666;2023-04-28T12:08:38;99640.72;;;14.69;80.89
12963;BME280;6546;49.882;8.666;2023-04-28T12:11:07;99647.13;;;14.73;80.87
12963;BME280;6546;49.882;8.666;2023-04-28T12:13:35;99644.13;;;14.77;81.04
12963;BME280;6546;49.882;8.666;2023-04-28T12:16:03;99645.13;;;14.76;81.09
12963;BME280;6546;49.882;8.666;2023-04-28T12:18:30;99636.72;;;14.80;81.82
12963;BME280;6546;49.882;8.666;2023-04-28T12:20:58;99628.50;;;14.96;81.62
12963;BME280;6546;49.882;8.666;2023-04-28T12:23:29;99613.06;;;15.14;81.48
12963;BME280;6546;49.882;8.666;2023-04-28T12:25:56;99605.81;;;15.23;80.79
12963;BME280;6546;49.882;8.666;2023-04-28T12:28:23;99596.59;;;15.27;80.50
12963;BME280;6546;49.882;8.666;2023-04-28T12:31:01;99605.41;;;15.26;80.27
12963;BME280;6546;49.882;8.666;2023-04-28T12:33:28;99610.81;;;15.31;80.43
12963;BME280;6546;49.882;8.666;2023-04-28T12:35:56;99614.19;;;15.45;81.04
12963;BME280;6546;49.882;8.666;2023-04-28T12:38:24;99623.44;;;15.60;80.35
12963;BME280;6546;49.882;8.666;2023-04-28T12:40:51;99618.16;;;15.73;79.57
12963;BME280;6546;49.882;8.666;2023-04-28T12:43:18;99618.13;;;15.80;78.88
12963;BME280;6546;49.882;8.666;2023-04-28T12:45:47;99613.06;;;15.92;78.94
12963;BME280;6546;49.882;8.666;2023-04-28T12:48:14;99608.63;;;15.99;78.59
12963;BME280;6546;49.882;8.666;2023-04-28T12:50:40;99601.19;;;16.02;78.99
12963;BME280;6546;49.882;8.666;2023-04-28T12:53:07;99595.91;;;16.15;78.85
12963;BME280;6546;49.882;8.666;2023-04-28T12:55:35;99598.41;;;16.28;78.27
12963;BME280;6546;49.882;8.666;2023-04-28T12:58:03;99599.81;;;16.31;77.34
12963;BME280;6546;49.882;8.666;2023-04-28T13:00:29;99609.25;;;16.32;77.41
12963;BME280;6546;49.882;8.666;2023-04-28T13:02:56;99616.91;;;16.27;77.85
12963;BME280;6546;49.882;8.666;2023-04-28T13:05:23;99611.69;;;16.27;77.72
12963;BME280;6546;49.882;8.666;2023-04-28T13:07:50;99611.13;;;16.25;77.25
12963;BME280;6546;49.882;8.666;2023-04-28T13:10:17;99619.34;;;16.22;77.70
12963;BME280;6546;49.882;8.666;2023-04-28T13:12:46;99625.59;;;16.21;77.73
12963;BME280;6546;49.882;8.666;2023-04-28T13:15:13;99614.34;;;16.20;77.25
12963;BME280;6546;49.882;8.666;2023-04-28T13:17:40;99614.09;;;16.28;77.27
12963;BME280;6546;49.882;8.666;2023-04-28T13:20:08;99610.25;;;16.38;76.87
12963;BME280;6546;49.882;8.666;2023-04-28T13:22:34;99608.59;;;16.43;76.91
12963;BME280;6546;49.882;8.666;2023-04-28T13:25:01;99601.31;;;16.45;77.01